Terminal Aerodrome Forecast
Issued by NWS

Home | Current Version | Previous Version | Text Only | Print | Product List | Glossary On
Versions: 1 2 3 4 5 6 7 8 9 10 11 12 13 14 15 16 17 18 19
000
FTAK31 PAJN 210800 AAA
TAFAKT
TAF AMD
PAKT 210856Z 2109/2206 14017G23KT P6SM VCSH SCT025 OVC050
     FM211400 14019G25KT P6SM -RA BKN030 OVC040 WS020/16035KT
     FM211800 14019G30KT 6SM -RA BKN020 OVC035 WS020/16040KT
     FM212100 14020G35KT 6SM -RA BR SCT012 OVC025 WS020/16050KT
     FM220300 14013G21KT P6SM -RA SCT020 OVC040 WS020/16035KT
      AMD LTD TO CLD VIS AND WIND 2106/2115=

USA.gov is the U.S. government's official web portal to all federal, state and local government web resources and services.